Time;durP1;ratioP1;P1;durP2;ratioP2;P2;SDS_P1;SDS_P2;PMS_P1;PMS_P2;Temp;Humidity;BMP_temperature;BMP_pressure;BME280_temperature;BME280_humidity;BME280_pressure;Samples;Min_cycle;Max_cycle;Signal;HPM_P1;HPM_P2
2022/11/02 00:01:43;;;;;;;;;;;14.50;99.90;;;;;;5014870;28;19964;-84
2022/11/02 00:04:09;;;;;;;;;;;14.60;99.90;;;;;;5015170;28;20380;-83
2022/11/02 00:06:35;;;;;;;;;;;14.60;99.90;;;;;;5015155;28;20029;-84
2022/11/02 00:09:00;;;;;;;;;;;14.60;99.90;;;;;;5015069;28;19909;-84
2022/11/02 00:11:25;;;;;;;;;;;14.60;99.90;;;;;;4997101;28;19924;-83
2022/11/02 00:13:51;;;;;;;;;;;14.60;99.90;;;;;;5015034;28;20380;-83
2022/11/02 00:16:17;;;;;;;;;;;14.70;99.90;;;;;;5014631;28;19913;-84
2022/11/02 00:18:45;;;;;;;;;;;14.70;99.90;;;;;;4997417;28;19933;-84
2022/11/02 00:21:10;;;;;;;;;;;14.60;99.90;;;;;;5014489;28;19924;-84
2022/11/02 00:23:36;;;;;;;;;;;14.70;99.90;;;;;;5014626;28;19909;-83
2022/11/02 00:26:02;;;;;;;;;;;14.70;99.90;;;;;;4996632;28;19916;-82
2022/11/02 00:28:27;;;;;;;;;;;14.70;99.90;;;;;;5014818;28;20262;-84
2022/11/02 00:30:53;;;;;;;;;;;14.70;99.90;;;;;;5014178;28;19909;-86
2022/11/02 00:33:19;;;;;;;;;;;14.60;99.90;;;;;;4997241;28;20115;-86
2022/11/02 00:35:45;;;;;;;;;;;14.60;99.90;;;;;;4997799;28;19909;-83
2022/11/02 00:38:10;;;;;;;;;;;14.60;99.90;;;;;;4997576;28;19940;-83
2022/11/02 00:40:36;;;;;;;;;;;14.60;99.90;;;;;;4997256;28;19909;-86
2022/11/02 00:43:01;;;;;;;;;;;14.70;99.90;;;;;;4997541;28;19910;-86
2022/11/02 00:45:27;;;;;;;;;;;14.70;99.90;;;;;;4998105;28;19913;-83
2022/11/02 00:47:52;;;;;;;;;;;14.60;99.90;;;;;;4998355;28;20360;-83
2022/11/02 00:50:18;;;;;;;;;;;14.50;99.90;;;;;;5016109;28;19910;-84
2022/11/02 00:52:43;;;;;;;;;;;14.50;99.90;;;;;;5015556;28;19916;-85
2022/11/02 00:55:10;;;;;;;;;;;14.50;99.90;;;;;;4997043;28;19913;-84
2022/11/02 00:57:38;;;;;;;;;;;14.50;99.90;;;;;;4996501;28;20468;-84
2022/11/02 01:00:05;;;;;;;;;;;14.40;99.90;;;;;;4996578;28;19909;-83
2022/11/02 01:02:31;;;;;;;;;;;14.40;99.90;;;;;;5014017;28;20361;-84
2022/11/02 01:04:56;;;;;;;;;;;14.30;99.90;;;;;;4996240;28;19924;-82
2022/11/02 01:07:22;;;;;;;;;;;14.30;99.90;;;;;;5014089;28;19935;-84
2022/11/02 01:09:47;;;;;;;;;;;14.30;99.90;;;;;;4996800;28;20004;-83
2022/11/02 01:12:13;;;;;;;;;;;14.30;99.90;;;;;;4996931;28;19968;-83
2022/11/02 01:14:38;;;;;;;;;;;14.30;99.90;;;;;;4996076;28;19919;-83
2022/11/02 01:17:04;;;;;;;;;;;14.30;99.90;;;;;;5014109;28;20269;-84
2022/11/02 01:19:29;;;;;;;;;;;14.30;99.90;;;;;;4996553;28;20389;-83
2022/11/02 01:21:55;;;;;;;;;;;14.20;99.90;;;;;;4996232;28;19913;-84
2022/11/02 01:24:20;;;;;;;;;;;14.20;99.90;;;;;;4996196;28;19910;-84
2022/11/02 01:26:48;;;;;;;;;;;14.20;99.90;;;;;;5015947;28;19909;-85
2022/11/02 01:29:14;;;;;;;;;;;14.20;99.90;;;;;;4996845;28;19909;-85
2022/11/02 01:31:39;;;;;;;;;;;14.20;99.90;;;;;;5014161;28;19914;-84
2022/11/02 01:34:05;;;;;;;;;;;14.10;99.90;;;;;;4997626;28;19917;-86
2022/11/02 01:36:30;;;;;;;;;;;14.10;99.90;;;;;;5015099;28;20276;-83
2022/11/02 01:38:55;;;;;;;;;;;14.10;99.90;;;;;;5014704;28;19909;-83
2022/11/02 01:41:21;;;;;;;;;;;14.00;99.90;;;;;;4997616;28;19909;-84
2022/11/02 01:43:50;;;;;;;;;;;14.00;99.90;;;;;;4997847;28;19960;-84
2022/11/02 01:46:21;;;;;;;;;;;13.90;99.90;;;;;;4981361;28;19921;-84
2022/11/02 01:48:53;;;;;;;;;;;14.00;99.90;;;;;;4994318;28;19938;-84
2022/11/02 01:51:21;;;;;;;;;;;13.90;99.90;;;;;;4976358;28;19997;-83
2022/11/02 01:53:48;;;;;;;;;;;13.90;99.90;;;;;;4976678;28;19909;-84
2022/11/02 01:56:15;;;;;;;;;;;13.90;99.90;;;;;;4977487;28;20291;-85
2022/11/02 01:58:44;;;;;;;;;;;13.90;99.90;;;;;;4977885;28;19916;-83
2022/11/02 02:01:09;;;;;;;;;;;13.90;99.90;;;;;;4996406;28;19921;-84
2022/11/02 02:03:35;;;;;;;;;;;13.90;99.90;;;;;;4976882;28;19913;-84
2022/11/02 02:06:06;;;;;;;;;;;13.90;99.90;;;;;;4993736;28;19959;-83
2022/11/02 02:08:34;;;;;;;;;;;13.90;99.90;;;;;;4994396;28;19910;-84
2022/11/02 02:10:59;;;;;;;;;;;14.00;99.90;;;;;;4993615;28;19921;-84
2022/11/02 02:13:26;;;;;;;;;;;14.00;99.90;;;;;;4994178;28;20342;-83
2022/11/02 02:15:54;;;;;;;;;;;14.00;99.90;;;;;;4975982;28;19910;-83
2022/11/02 02:18:33;;;;;;;;;;;14.00;99.90;;;;;;4976299;28;19920;-84
2022/11/02 02:21:22;;;;;;;;;;;13.90;99.90;;;;;;4993605;28;19921;-84
2022/11/02 02:24:06;;;;;;;;;;;13.90;99.90;;;;;;4976560;28;19916;-84
2022/11/02 02:26:32;;;;;;;;;;;13.90;99.90;;;;;;4976157;28;19910;-84
2022/11/02 02:29:04;;;;;;;;;;;13.90;99.90;;;;;;4976836;28;19914;-84
2022/11/02 02:31:37;;;;;;;;;;;13.90;99.90;;;;;;4976512;28;19920;-83
2022/11/02 02:34:02;;;;;;;;;;;13.90;99.90;;;;;;4976268;28;19910;-84
2022/11/02 02:36:30;;;;;;;;;;;13.90;99.90;;;;;;4976100;28;19963;-84
2022/11/02 02:38:56;;;;;;;;;;;13.90;99.90;;;;;;4976195;28;19910;-83
2022/11/02 02:41:21;;;;;;;;;;;13.80;99.90;;;;;;4976197;28;19917;-84
2022/11/02 02:43:52;;;;;;;;;;;13.80;99.90;;;;;;4975812;28;19917;-86
2022/11/02 02:46:24;;;;;;;;;;;13.80;99.90;;;;;;4975962;28;19917;-83
2022/11/02 02:48:51;;;;;;;;;;;13.80;99.90;;;;;;4975959;28;19932;-83
2022/11/02 02:51:31;;;;;;;;;;;13.80;99.90;;;;;;4975929;28;19916;-84
2022/11/02 02:54:02;;;;;;;;;;;13.80;99.90;;;;;;4993588;28;20292;-83
2022/11/02 02:56:29;;;;;;;;;;;13.80;99.90;;;;;;4975434;28;19929;-84
2022/11/02 02:59:05;;;;;;;;;;;13.80;99.90;;;;;;4975833;28;20313;-84
2022/11/02 03:01:31;;;;;;;;;;;13.80;99.90;;;;;;4981057;28;19910;-84
2022/11/02 03:03:56;;;;;;;;;;;13.90;99.90;;;;;;4980966;28;19933;-85
2022/11/02 03:06:26;;;;;;;;;;;14.00;99.90;;;;;;4980272;28;20373;-85
2022/11/02 03:09:06;;;;;;;;;;;14.10;99.90;;;;;;4980882;28;19925;-82
2022/11/02 03:11:33;;;;;;;;;;;14.20;99.90;;;;;;5055389;23;19925;-80
2022/11/02 03:14:08;;;;;;;;;;;14.20;99.90;;;;;;5055629;28;19916;-78
2022/11/02 03:16:43;;;;;;;;;;;14.30;99.90;;;;;;5055264;28;20063;-80
2022/11/02 03:19:23;;;;;;;;;;;14.30;99.90;;;;;;5055667;28;19909;-79
2022/11/02 03:21:56;;;;;;;;;;;14.40;99.90;;;;;;5055537;28;20051;-78
2022/11/02 03:24:30;;;;;;;;;;;14.30;99.90;;;;;;5055396;28;19909;-78
2022/11/02 03:27:14;;;;;;;;;;;14.30;99.90;;;;;;5055192;28;19920;-78
2022/11/02 03:29:48;;;;;;;;;;;14.40;99.90;;;;;;5055385;28;19909;-78
2022/11/02 03:32:16;;;;;;;;;;;14.40;99.90;;;;;;5055398;28;19917;-79
2022/11/02 03:34:43;;;;;;;;;;;14.40;99.90;;;;;;5055236;28;20004;-78
2022/11/02 03:37:12;;;;;;;;;;;14.40;99.90;;;;;;5054961;28;20367;-80
2022/11/02 03:39:41;;;;;;;;;;;14.40;99.90;;;;;;5055249;28;19909;-78
2022/11/02 03:42:08;;;;;;;;;;;14.40;99.90;;;;;;5055198;28;20287;-78
2022/11/02 03:44:36;;;;;;;;;;;14.50;99.90;;;;;;5055186;28;19913;-78
2022/11/02 03:47:02;;;;;;;;;;;14.50;99.90;;;;;;5054951;28;19923;-79
2022/11/02 03:49:28;;;;;;;;;;;14.50;99.90;;;;;;5055017;28;19909;-79
2022/11/02 03:51:55;;;;;;;;;;;14.50;99.90;;;;;;5053958;28;19913;-81
2022/11/02 03:54:24;;;;;;;;;;;14.40;99.90;;;;;;5036278;28;19909;-78
2022/11/02 03:56:52;;;;;;;;;;;14.40;99.90;;;;;;5054724;28;19914;-79
2022/11/02 03:59:17;;;;;;;;;;;14.40;99.90;;;;;;5054826;28;19962;-78
2022/11/02 04:01:44;;;;;;;;;;;14.30;99.90;;;;;;5054773;28;20438;-78
2022/11/02 04:04:10;;;;;;;;;;;14.30;99.90;;;;;;5052069;28;19912;-78
2022/11/02 04:06:36;;;;;;;;;;;14.20;99.90;;;;;;5053749;28;19909;-79
2022/11/02 04:09:02;;;;;;;;;;;14.10;99.90;;;;;;5054377;28;19959;-78
2022/11/02 04:19:41;;;;;;;;;;;14.00;99.90;;;;;;5054698;28;19915;-78
2022/11/02 04:27:35;;;;;;;;;;;14.00;99.90;;;;;;5054161;28;19915;-78
2022/11/02 04:30:00;;;;;;;;;;;14.00;99.90;;;;;;5054129;28;20007;-79
2022/11/02 04:35:10;;;;;;;;;;;13.90;99.90;;;;;;5054590;28;19993;-78
2022/11/02 04:40:23;;;;;;;;;;;13.90;99.90;;;;;;5054045;28;20018;-78
2022/11/02 04:42:49;;;;;;;;;;;13.90;99.90;;;;;;5054067;28;20390;-78
2022/11/02 04:45:14;;;;;;;;;;;13.80;99.90;;;;;;5053892;28;19916;-78
2022/11/02 04:47:40;;;;;;;;;;;13.80;99.90;;;;;;5053654;28;19915;-78
2022/11/02 04:50:05;;;;;;;;;;;13.70;99.90;;;;;;5035860;28;19913;-79
2022/11/02 04:52:31;;;;;;;;;;;13.70;99.90;;;;;;5053668;28;20010;-79
2022/11/02 04:54:56;;;;;;;;;;;13.60;99.90;;;;;;5053747;28;19909;-78
2022/11/02 04:57:22;;;;;;;;;;;13.60;99.90;;;;;;5035579;28;19960;-78
2022/11/02 04:59:47;;;;;;;;;;;13.60;99.90;;;;;;5053833;28;19939;-79
2022/11/02 05:02:12;;;;;;;;;;;13.60;99.90;;;;;;5053704;28;19939;-78
2022/11/02 05:04:38;;;;;;;;;;;13.60;99.90;;;;;;5053578;28;19909;-78
2022/11/02 05:07:06;;;;;;;;;;;13.60;99.90;;;;;;5051903;28;20283;-78
2022/11/02 05:09:31;;;;;;;;;;;13.60;99.90;;;;;;5053281;28;19909;-78
2022/11/02 05:11:57;;;;;;;;;;;13.60;99.90;;;;;;5053248;28;19916;-78
2022/11/02 05:14:23;;;;;;;;;;;13.60;99.90;;;;;;5035517;28;19913;-78
2022/11/02 05:16:48;;;;;;;;;;;13.50;99.90;;;;;;5034943;28;19919;-78
2022/11/02 05:19:13;;;;;;;;;;;13.50;99.90;;;;;;5053453;28;19913;-80
2022/11/02 05:21:39;;;;;;;;;;;13.50;99.90;;;;;;5053254;28;20047;-78
2022/11/02 05:24:05;;;;;;;;;;;13.50;99.90;;;;;;5052568;28;20391;-78
2022/11/02 05:26:30;;;;;;;;;;;13.40;99.90;;;;;;5049861;28;19909;-79
2022/11/02 05:28:56;;;;;;;;;;;13.40;99.90;;;;;;5053139;28;19909;-80
2022/11/02 05:31:21;;;;;;;;;;;13.40;99.90;;;;;;5053233;28;20004;-78
2022/11/02 05:33:47;;;;;;;;;;;13.40;99.90;;;;;;5035431;28;19916;-78
2022/11/02 05:36:12;;;;;;;;;;;13.40;99.90;;;;;;5034810;28;19931;-80
2022/11/02 05:38:37;;;;;;;;;;;13.40;99.90;;;;;;5053146;28;19909;-78
2022/11/02 05:41:03;;;;;;;;;;;13.40;99.90;;;;;;5053012;28;19909;-78
2022/11/02 05:43:28;;;;;;;;;;;13.40;99.90;;;;;;5052885;28;20383;-78
2022/11/02 05:45:55;;;;;;;;;;;13.40;99.90;;;;;;5034938;28;19913;-78
2022/11/02 05:48:21;;;;;;;;;;;13.30;99.90;;;;;;5052935;28;19955;-78
2022/11/02 05:50:47;;;;;;;;;;;13.30;99.90;;;;;;5052846;28;19909;-79
2022/11/02 05:53:12;;;;;;;;;;;13.30;99.90;;;;;;5051099;28;19916;-78
2022/11/02 05:55:38;;;;;;;;;;;13.30;99.90;;;;;;5052446;28;19916;-78
2022/11/02 05:58:03;;;;;;;;;;;13.30;99.90;;;;;;5052515;28;20501;-79
2022/11/02 06:00:29;;;;;;;;;;;13.30;99.90;;;;;;5034750;28;19909;-79
2022/11/02 06:02:55;;;;;;;;;;;13.30;99.90;;;;;;5034705;28;19920;-78
2022/11/02 06:05:21;;;;;;;;;;;13.30;99.90;;;;;;5052294;28;20386;-79
2022/11/02 06:07:46;;;;;;;;;;;13.20;99.90;;;;;;5052450;28;20003;-78
2022/11/02 06:10:12;;;;;;;;;;;13.30;99.90;;;;;;5034559;28;19908;-78
2022/11/02 06:12:37;;;;;;;;;;;13.30;99.90;;;;;;5034644;28;19959;-79
2022/11/02 06:15:03;;;;;;;;;;;13.20;99.90;;;;;;5052866;28;19909;-78
2022/11/02 06:17:35;;;;;;;;;;;13.30;99.90;;;;;;5052222;28;19913;-78
2022/11/02 06:20:00;;;;;;;;;;;13.30;99.90;;;;;;5052607;28;19960;-78
2022/11/02 06:22:25;;;;;;;;;;;13.30;99.90;;;;;;5032482;28;20367;-78
2022/11/02 06:24:51;;;;;;;;;;;13.20;99.90;;;;;;5052284;28;19908;-78
2022/11/02 06:27:16;;;;;;;;;;;13.20;99.90;;;;;;5052078;28;19909;-78
2022/11/02 06:29:42;;;;;;;;;;;13.20;99.90;;;;;;5052347;28;19909;-78
2022/11/02 06:32:07;;;;;;;;;;;13.20;99.90;;;;;;5052213;28;19909;-78
2022/11/02 06:34:33;;;;;;;;;;;13.20;99.90;;;;;;5053232;28;20527;-78
2022/11/02 06:36:58;;;;;;;;;;;13.20;99.90;;;;;;5056018;28;20292;-78
2022/11/02 06:39:24;;;;;;;;;;;13.10;99.90;;;;;;5056250;28;19913;-79
2022/11/02 06:41:49;;;;;;;;;;;13.10;99.90;;;;;;5038222;28;19916;-78
2022/11/02 06:44:14;;;;;;;;;;;13.10;99.90;;;;;;5056108;28;19939;-78
2022/11/02 06:46:40;;;;;;;;;;;13.20;99.90;;;;;;5055832;28;20364;-79
2022/11/02 06:49:05;;;;;;;;;;;13.10;99.90;;;;;;5056967;28;19908;-80
2022/11/02 06:51:31;;;;;;;;;;;13.20;99.90;;;;;;5054392;28;19909;-78
2022/11/02 06:53:56;;;;;;;;;;;13.10;99.90;;;;;;5055983;28;19909;-78
2022/11/02 06:56:22;;;;;;;;;;;13.10;99.90;;;;;;5056109;28;19920;-78
2022/11/02 06:58:47;;;;;;;;;;;13.10;99.90;;;;;;5056647;28;20264;-78
2022/11/02 07:01:14;;;;;;;;;;;13.10;99.90;;;;;;5056253;28;19944;-79
2022/11/02 07:03:39;;;;;;;;;;;13.10;99.90;;;;;;5056509;28;19999;-78
2022/11/02 07:06:05;;;;;;;;;;;13.10;99.90;;;;;;5055973;28;19955;-79
2022/11/02 07:08:30;;;;;;;;;;;13.20;99.90;;;;;;5038170;28;19908;-79
2022/11/02 07:10:56;;;;;;;;;;;13.10;99.90;;;;;;5055971;28;20579;-79
2022/11/02 07:13:22;;;;;;;;;;;13.20;99.90;;;;;;5056036;28;19908;-78
2022/11/02 07:15:50;;;;;;;;;;;13.20;99.90;;;;;;5055621;28;19913;-78
2022/11/02 07:18:15;;;;;;;;;;;13.20;99.90;;;;;;5055884;28;19920;-78
2022/11/02 07:20:41;;;;;;;;;;;13.20;99.90;;;;;;5055290;28;19909;-78
2022/11/02 07:23:07;;;;;;;;;;;13.20;99.90;;;;;;5055758;28;19908;-78
2022/11/02 07:25:33;;;;;;;;;;;13.20;99.90;;;;;;5055440;28;19912;-78
2022/11/02 07:27:59;;;;;;;;;;;13.20;99.90;;;;;;5055646;28;20380;-78
2022/11/02 07:30:25;;;;;;;;;;;13.20;99.90;;;;;;5055169;28;19941;-78
2022/11/02 07:32:51;;;;;;;;;;;13.30;99.90;;;;;;5055446;28;19992;-78
2022/11/02 07:35:17;;;;;;;;;;;13.30;99.90;;;;;;5055161;28;19944;-78
2022/11/02 07:37:42;;;;;;;;;;;13.30;99.90;;;;;;5055089;28;19963;-78
2022/11/02 07:40:09;;;;;;;;;;;13.30;99.90;;;;;;5056054;28;19912;-78
2022/11/02 07:42:35;;;;;;;;;;;13.30;99.90;;;;;;5056005;28;19909;-78
2022/11/02 07:45:00;;;;;;;;;;;13.30;99.90;;;;;;5054997;28;19909;-78
2022/11/02 07:47:26;;;;;;;;;;;13.40;99.90;;;;;;5054591;28;19991;-79
2022/11/02 07:49:51;;;;;;;;;;;13.40;99.90;;;;;;5056267;28;19924;-78
2022/11/02 07:52:17;;;;;;;;;;;13.50;99.90;;;;;;5038345;28;19916;-79
2022/11/02 07:54:42;;;;;;;;;;;13.50;99.90;;;;;;5038237;28;19909;-78
2022/11/02 07:57:08;;;;;;;;;;;13.50;99.90;;;;;;5054416;28;19912;-80
2022/11/02 07:59:35;;;;;;;;;;;13.60;99.90;;;;;;5037028;28;19959;-78
2022/11/02 08:02:01;;;;;;;;;;;13.70;99.90;;;;;;5055154;28;19909;-78
2022/11/02 08:04:26;;;;;;;;;;;13.70;99.90;;;;;;5050626;28;20462;-80
2022/11/02 08:06:52;;;;;;;;;;;13.70;99.90;;;;;;5049847;28;19946;-78
2022/11/02 08:09:18;;;;;;;;;;;13.70;99.90;;;;;;5054433;28;19908;-80
2022/11/02 08:11:43;;;;;;;;;;;13.80;99.90;;;;;;5053790;28;19916;-80
2022/11/02 08:14:09;;;;;;;;;;;13.90;99.90;;;;;;5054313;28;20000;-80
2022/11/02 08:16:34;;;;;;;;;;;14.00;99.90;;;;;;5047081;28;19920;-78
2022/11/02 08:18:59;;;;;;;;;;;14.00;99.90;;;;;;5034690;28;19913;-79
2022/11/02 08:21:25;;;;;;;;;;;14.00;99.90;;;;;;5034400;28;20349;-78
2022/11/02 08:23:51;;;;;;;;;;;14.00;99.90;;;;;;5016506;28;19909;-78
2022/11/02 08:26:16;;;;;;;;;;;14.10;99.90;;;;;;5016319;28;19909;-78
2022/11/02 08:28:41;;;;;;;;;;;14.20;99.90;;;;;;5034443;28;19909;-78
2022/11/02 08:31:14;;;;;;;;;;;14.20;99.90;;;;;;5016425;28;19909;-80
2022/11/02 08:33:41;;;;;;;;;;;14.20;99.90;;;;;;5033979;28;20392;-81
2022/11/02 08:36:06;;;;;;;;;;;14.30;99.90;;;;;;5033131;28;19952;-81
2022/11/02 08:38:32;;;;;;;;;;;14.40;99.90;;;;;;5033911;28;19981;-81
2022/11/02 08:40:57;;;;;;;;;;;14.50;99.90;;;;;;5033774;28;19909;-80
2022/11/02 08:43:23;;;;;;;;;;;14.60;99.90;;;;;;5034203;28;19981;-79
2022/11/02 08:45:48;;;;;;;;;;;14.70;99.90;;;;;;5033908;28;19916;-80
2022/11/02 08:48:14;;;;;;;;;;;14.60;99.90;;;;;;5033456;28;19919;-79
2022/11/02 08:50:39;;;;;;;;;;;14.70;99.90;;;;;;5033928;28;19955;-79
2022/11/02 08:53:05;;;;;;;;;;;14.70;99.90;;;;;;5033933;28;19956;-78
2022/11/02 08:55:30;;;;;;;;;;;14.70;99.90;;;;;;5033187;28;19909;-82
2022/11/02 08:57:57;;;;;;;;;;;14.70;99.90;;;;;;5033291;28;19948;-81
2022/11/02 09:00:27;;;;;;;;;;;14.90;99.90;;;;;;5032855;28;19917;-81
2022/11/02 09:02:59;;;;;;;;;;;14.90;99.90;;;;;;5015928;28;19909;-81
2022/11/02 09:05:25;;;;;;;;;;;14.90;99.90;;;;;;5032807;28;20004;-80
2022/11/02 09:07:55;;;;;;;;;;;14.90;99.90;;;;;;5033876;28;19947;-80
2022/11/02 09:10:20;;;;;;;;;;;14.90;99.90;;;;;;5015622;28;19928;-80
2022/11/02 09:12:46;;;;;;;;;;;14.90;99.90;;;;;;5037503;28;19913;-80
2022/11/02 09:15:11;;;;;;;;;;;15.00;99.90;;;;;;5054222;28;20453;-79
2022/11/02 09:17:37;;;;;;;;;;;15.10;99.90;;;;;;5044634;28;19913;-79
2022/11/02 09:20:02;;;;;;;;;;;15.00;99.90;;;;;;5053248;28;19909;-80
2022/11/02 09:22:29;;;;;;;;;;;15.00;99.90;;;;;;5053126;28;19962;-79
2022/11/02 09:24:54;;;;;;;;;;;15.00;99.90;;;;;;5052766;28;20380;-79
2022/11/02 09:27:20;;;;;;;;;;;15.00;99.90;;;;;;5049922;28;19949;-79
2022/11/02 09:29:45;;;;;;;;;;;15.00;99.90;;;;;;5050971;28;19915;-78
2022/11/02 09:32:10;;;;;;;;;;;14.90;99.90;;;;;;5049353;28;19912;-80
2022/11/02 09:34:36;;;;;;;;;;;14.80;99.90;;;;;;5049912;28;19927;-79
2022/11/02 09:37:01;;;;;;;;;;;14.90;99.90;;;;;;5051969;28;19913;-79
2022/11/02 09:39:27;;;;;;;;;;;15.00;99.90;;;;;;5052769;28;19913;-79
2022/11/02 09:42:10;;;;;;;;;;;15.00;99.90;;;;;;5052603;28;19916;-80
2022/11/02 09:44:35;;;;;;;;;;;15.10;99.90;;;;;;5052580;28;20003;-79
2022/11/02 09:47:01;;;;;;;;;;;15.10;99.90;;;;;;5052407;28;19947;-79
2022/11/02 09:49:28;;;;;;;;;;;15.20;99.90;;;;;;5034527;28;19933;-80
2022/11/02 09:51:55;;;;;;;;;;;15.20;99.90;;;;;;5052613;28;19919;-79
2022/11/02 09:54:29;;;;;;;;;;;15.30;99.90;;;;;;5051457;28;19986;-78
2022/11/02 09:57:00;;;;;;;;;;;15.30;99.90;;;;;;5052363;28;20382;-77
2022/11/02 09:59:26;;;;;;;;;;;15.30;99.90;;;;;;5025415;28;19928;-78
2022/11/02 10:02:00;;;;;;;;;;;15.40;99.90;;;;;;5014689;28;20407;-79
2022/11/02 10:04:32;;;;;;;;;;;15.50;99.90;;;;;;5014888;28;20372;-78
2022/11/02 10:07:15;;;;;;;;;;;15.50;99.90;;;;;;5032378;28;20292;-80
2022/11/02 10:09:47;;;;;;;;;;;15.50;99.90;;;;;;5032380;28;20044;-78
2022/11/02 10:12:14;;;;;;;;;;;15.60;99.90;;;;;;5032133;28;20418;-79
2022/11/02 10:14:48;;;;;;;;;;;15.70;99.90;;;;;;5014818;28;19909;-79
2022/11/02 10:17:19;;;;;;;;;;;15.80;99.90;;;;;;5032334;28;20625;-78
2022/11/02 10:19:48;;;;;;;;;;;15.90;99.90;;;;;;5032610;28;20323;-78
2022/11/02 10:22:14;;;;;;;;;;;16.00;99.90;;;;;;5032235;28;19963;-78
2022/11/02 10:24:43;;;;;;;;;;;16.10;99.90;;;;;;5032122;28;19909;-77
2022/11/02 10:27:29;;;;;;;;;;;16.10;99.90;;;;;;5032168;28;19944;-77
2022/11/02 10:30:12;;;;;;;;;;;16.10;99.90;;;;;;5032123;28;19909;-79
2022/11/02 10:32:38;;;;;;;;;;;16.00;99.90;;;;;;5032799;28;19910;-78
2022/11/02 10:35:08;;;;;;;;;;;16.10;99.90;;;;;;5032476;28;20456;-81
2022/11/02 10:37:34;;;;;;;;;;;16.20;99.90;;;;;;5031819;28;19971;-77
2022/11/02 10:39:59;;;;;;;;;;;16.20;99.90;;;;;;5036233;28;19912;-77
2022/11/02 10:42:30;;;;;;;;;;;16.30;99.90;;;;;;5051412;28;20007;-79
2022/11/02 10:45:02;;;;;;;;;;;16.30;99.90;;;;;;5032726;28;19916;-77
2022/11/02 10:47:33;;;;;;;;;;;16.50;99.90;;;;;;5051842;28;19916;-77
2022/11/02 10:50:07;;;;;;;;;;;16.70;99.90;;;;;;5048802;28;19908;-79
2022/11/02 10:52:37;;;;;;;;;;;17.00;99.90;;;;;;5014870;28;20019;-77
2022/11/02 10:55:03;;;;;;;;;;;18.30;99.90;;;;;;5014451;28;19909;-77
2022/11/02 10:57:29;;;;;;;;;;;20.00;99.90;;;;;;5031716;28;19920;-78
2022/11/02 11:00:13;;;;;;;;;;;20.90;99.90;;;;;;5032127;28;19909;-77
2022/11/02 11:02:38;;;;;;;;;;;21.80;97.00;;;;;;5048434;28;19909;-78
2022/11/02 11:05:11;;;;;;;;;;;23.50;92.30;;;;;;5034349;28;19959;-79
2022/11/02 11:07:42;;;;;;;;;;;25.00;84.20;;;;;;5052218;28;19915;-78
2022/11/02 11:10:13;;;;;;;;;;;26.90;74.10;;;;;;5051143;28;19931;-83
2022/11/02 11:12:41;;;;;;;;;;;28.00;67.30;;;;;;5038418;28;20344;-78
2022/11/02 11:15:18;;;;;;;;;;;28.40;58.10;;;;;;5043990;28;19909;-80
2022/11/02 11:17:44;;;;;;;;;;;26.80;57.40;;;;;;5051758;28;20011;-79
2022/11/02 11:20:28;;;;;;;;;;;27.90;56.50;;;;;;5050838;28;20406;-79
2022/11/02 11:23:14;;;;;;;;;;;27.60;55.20;;;;;;5054790;28;19913;-79
2022/11/02 11:25:40;;;;;;;;;;;28.80;54.30;;;;;;5055756;28;19943;-77
2022/11/02 11:28:20;;;;;;;;;;;30.10;53.70;;;;;;5055903;28;19952;-79
2022/11/02 11:30:47;;;;;;;;;;;30.30;50.80;;;;;;5037663;28;19909;-81
2022/11/02 11:33:14;;;;;;;;;;;29.90;50.20;;;;;;5055813;28;19908;-80
2022/11/02 11:35:45;;;;;;;;;;;28.10;50.20;;;;;;5055277;28;20356;-79
2022/11/02 11:38:16;;;;;;;;;;;28.40;50.50;;;;;;5037433;28;19913;-79
2022/11/02 11:40:43;;;;;;;;;;;28.40;49.40;;;;;;5055368;28;19909;-79
2022/11/02 11:43:11;;;;;;;;;;;29.60;50.20;;;;;;5055199;28;19932;-81
2022/11/02 11:45:37;;;;;;;;;;;29.90;47.60;;;;;;5054991;28;20412;-81
2022/11/02 11:48:21;;;;;;;;;;;29.50;47.80;;;;;;5055186;28;19941;-80
2022/11/02 11:50:47;;;;;;;;;;;29.00;48.10;;;;;;5054880;28;19909;-80
2022/11/02 11:53:25;;;;;;;;;;;29.30;48.20;;;;;;5055167;28;19935;-80
2022/11/02 11:55:52;;;;;;;;;;;29.30;48.70;;;;;;5054907;28;20419;-78
2022/11/02 11:58:17;;;;;;;;;;;29.10;47.90;;;;;;5037338;28;19978;-78
2022/11/02 12:00:43;;;;;;;;;;;28.20;47.70;;;;;;5054811;28;20412;-78
2022/11/02 12:03:12;;;;;;;;;;;27.10;49.70;;;;;;5054606;28;20380;-78
2022/11/02 12:05:43;;;;;;;;;;;27.20;51.00;;;;;;5054426;28;19909;-78
2022/11/02 12:08:18;;;;;;;;;;;26.60;50.00;;;;;;5054453;28;20277;-78
2022/11/02 12:11:09;;;;;;;;;;;26.40;49.40;;;;;;5054551;28;20388;-79
2022/11/02 12:13:37;;;;;;;;;;;25.40;51.00;;;;;;5054870;28;19909;-77
2022/11/02 12:16:09;;;;;;;;;;;25.30;52.70;;;;;;5054804;28;20384;-77
2022/11/02 12:18:34;;;;;;;;;;;25.40;52.20;;;;;;5036930;28;20368;-77
2022/11/02 12:21:10;;;;;;;;;;;24.50;52.80;;;;;;5036866;28;19915;-78
2022/11/02 12:23:50;;;;;;;;;;;23.60;54.10;;;;;;5054653;28;20055;-81
2022/11/02 12:26:39;;;;;;;;;;;23.20;57.20;;;;;;5054576;28;19961;-77
2022/11/02 12:29:10;;;;;;;;;;;22.50;56.30;;;;;;5054385;28;19913;-78
2022/11/02 12:31:37;;;;;;;;;;;22.40;59.00;;;;;;5054577;28;19909;-77
2022/11/02 12:34:06;;;;;;;;;;;23.90;58.60;;;;;;5054166;28;20368;-77
2022/11/02 12:36:37;;;;;;;;;;;25.30;57.20;;;;;;5053748;28;19913;-80
2022/11/02 12:39:07;;;;;;;;;;;25.60;54.90;;;;;;5054165;28;19931;-79
2022/11/02 12:41:35;;;;;;;;;;;25.20;55.10;;;;;;5054166;28;20272;-79
2022/11/02 12:44:25;;;;;;;;;;;25.20;55.60;;;;;;5054178;28;19916;-79
2022/11/02 12:46:57;;;;;;;;;;;24.70;54.50;;;;;;5045952;28;19909;-80
2022/11/02 12:49:30;;;;;;;;;;;24.00;55.60;;;;;;5053848;28;20340;-79
2022/11/02 12:52:05;;;;;;;;;;;24.10;54.90;;;;;;5053907;28;19916;-80
2022/11/02 12:54:35;;;;;;;;;;;24.20;56.00;;;;;;5053987;28;20376;-79
2022/11/02 12:57:00;;;;;;;;;;;24.00;55.80;;;;;;5053533;28;19917;-79
2022/11/02 12:59:27;;;;;;;;;;;23.50;55.40;;;;;;5044827;28;19959;-80
2022/11/02 13:02:14;;;;;;;;;;;23.20;56.60;;;;;;5044380;28;19912;-79
2022/11/02 13:04:42;;;;;;;;;;;23.00;57.40;;;;;;5042978;28;20331;-80
2022/11/02 13:07:12;;;;;;;;;;;23.10;59.00;;;;;;5032909;28;20317;-80
2022/11/02 13:09:40;;;;;;;;;;;22.50;57.90;;;;;;5032786;28;20319;-80
2022/11/02 13:12:08;;;;;;;;;;;21.90;58.80;;;;;;5015058;28;19917;-80
2022/11/02 13:14:38;;;;;;;;;;;21.50;60.10;;;;;;5032783;28;19913;-80
2022/11/02 13:17:10;;;;;;;;;;;21.10;60.60;;;;;;5032219;28;19928;-80
2022/11/02 13:19:40;;;;;;;;;;;21.00;62.30;;;;;;5032678;28;19909;-80
2022/11/02 13:22:08;;;;;;;;;;;21.10;64.20;;;;;;5032752;28;19915;-80
2022/11/02 13:24:37;;;;;;;;;;;21.00;63.90;;;;;;5032772;28;19984;-79
2022/11/02 13:27:04;;;;;;;;;;;21.10;63.30;;;;;;5032388;28;20420;-79
2022/11/02 13:29:30;;;;;;;;;;;21.10;64.30;;;;;;5032607;28;20000;-79
2022/11/02 13:31:59;;;;;;;;;;;21.20;66.00;;;;;;5014699;28;20346;-80
2022/11/02 13:34:32;;;;;;;;;;;20.40;63.00;;;;;;5015012;28;20343;-78
2022/11/02 13:37:02;;;;;;;;;;;20.10;65.00;;;;;;5031771;28;19917;-78
2022/11/02 13:39:32;;;;;;;;;;;19.90;67.70;;;;;;5014782;28;19959;-78
2022/11/02 13:42:07;;;;;;;;;;;19.70;67.10;;;;;;5020007;28;19908;-79
2022/11/02 13:44:51;;;;;;;;;;;19.60;68.60;;;;;;5050326;28;19913;-79
2022/11/02 13:47:27;;;;;;;;;;;19.40;67.60;;;;;;5051188;28;19913;-79
2022/11/02 13:49:55;;;;;;;;;;;19.20;69.20;;;;;;5043608;28;20020;-79
2022/11/02 13:52:38;;;;;;;;;;;19.10;69.60;;;;;;5052131;28;20327;-78
2022/11/02 13:55:04;;;;;;;;;;;19.00;69.20;;;;;;5052150;28;19924;-79
2022/11/02 13:57:39;;;;;;;;;;;18.90;69.80;;;;;;5050642;28;19967;-78
2022/11/02 14:00:06;;;;;;;;;;;18.90;70.90;;;;;;5051958;28;19961;-79
2022/11/02 14:02:35;;;;;;;;;;;18.80;71.50;;;;;;5047934;28;19924;-78
2022/11/02 14:05:01;;;;;;;;;;;18.70;71.30;;;;;;5033882;28;20387;-79
2022/11/02 14:07:26;;;;;;;;;;;18.60;73.00;;;;;;5043548;28;19915;-79
2022/11/02 14:10:02;;;;;;;;;;;18.50;75.30;;;;;;5051917;28;19970;-79
2022/11/02 14:12:38;;;;;;;;;;;18.50;77.70;;;;;;5052265;28;19921;-79
2022/11/02 14:15:12;;;;;;;;;;;18.50;76.50;;;;;;5051574;28;20299;-79
2022/11/02 14:17:53;;;;;;;;;;;18.40;78.10;;;;;;5051749;28;20317;-76
2022/11/02 14:20:31;;;;;;;;;;;18.30;79.50;;;;;;5034081;28;19970;-78
2022/11/02 14:23:09;;;;;;;;;;;18.40;79.20;;;;;;5033964;28;19916;-79
2022/11/02 14:25:54;;;;;;;;;;;18.30;79.60;;;;;;5033794;28;19909;-79
2022/11/02 14:28:19;;;;;;;;;;;18.30;80.30;;;;;;5051913;28;19913;-79
2022/11/02 14:30:45;;;;;;;;;;;18.20;81.30;;;;;;5051372;28;20356;-77
2022/11/02 14:33:37;;;;;;;;;;;18.20;84.30;;;;;;5050279;28;19909;-79
2022/11/02 14:36:05;;;;;;;;;;;18.20;83.80;;;;;;5017970;28;20280;-79
2022/11/02 14:38:39;;;;;;;;;;;18.30;83.60;;;;;;5051362;28;19939;-79
2022/11/02 14:41:16;;;;;;;;;;;18.20;84.90;;;;;;5051562;28;19912;-79
2022/11/02 14:43:56;;;;;;;;;;;18.00;85.30;;;;;;5051659;28;20015;-78